Weather reports worldwide

Advertisment
Wick Airport, United Kingdom (2003075): temperature & dewpoint: 19.09.2020 02:00:00 - 25.09.2020 02:00:00 (BST)Wick Airport, United Kingdom (2003075): wind speed: 19.09.2020 02:00:00 - 25.09.2020 02:00:00 (BST)Wick Airport, United Kingdom (2003075): wind direction: 19.09.2020 02:00:00 - 25.09.2020 02:00:00 (BST)Wick Airport, United Kingdom (2003075): visibility: 19.09.2020 02:00:00 - 25.09.2020 02:00:00 (BST)
Date & Time tt [°C] td [°C] ff [km/h] ff [kn] dd vv [km]
25.09.2020 02:00:00 6,0 5,0 8 4 WNW 10
25.09.2020 01:00:00 5,0 5,0 8 4 W 10
25.09.2020 00:00:00 6,0 4,0 9 5 W 10
24.09.2020 23:00:00 9,0 5,0 11 6 N 10
24.09.2020 22:00:00 8,0 6,0 13 7 NNW 10
24.09.2020 21:00:00 7,0 4,0 5 3 NW 10
24.09.2020 20:00:00 6,0 4,0 11 6 NNW 10
24.09.2020 19:00:00 8,0 5,0 15 8 NNW 10
24.09.2020 18:00:00 9,0 5,0 16 9 NNW 10
24.09.2020 17:00:00 10,0 5,0 16 9 NNW 10
24.09.2020 16:00:00 11,0 4,0 22 12 NNW 10
24.09.2020 15:00:00 11,0 4,0 21 11 N 10
24.09.2020 14:00:00 11,0 4,0 18 10 N 10
24.09.2020 13:00:00 11,0 4,0 16 9 N 10
24.09.2020 12:00:00 10,0 4,0 18 10 N 10
24.09.2020 11:00:00 10,0 4,0 21 11 N 10
24.09.2020 10:00:00 9,0 4,0 16 9 NNE 10
24.09.2020 09:00:00 6,0 5,0 11 6 NNW 10
24.09.2020 08:00:00 3,0 2,0 13 7 NNW 10
24.09.2020 07:00:00 2,0 1,0 13 7 NW 10
24.09.2020 06:00:00 3,0 2,0 9 5 WNW 10
24.09.2020 05:00:00 2,0 1,0 9 5 W 10
24.09.2020 04:00:00 3,0 1,0 11 6 W 10
24.09.2020 03:00:00 2,0 1,0 11 6 W 10
24.09.2020 02:00:00 2,0 1,0 11 6 W 10
24.09.2020 01:00:00 3,0 2,0 9 5 W 10
24.09.2020 00:00:00 4,0 3,0 8 4 W 10
23.09.2020 23:00:00 5,0 3,0 5 3 WNW 10
23.09.2020 22:00:00 7,0 3,0 8 4 E 10
23.09.2020 21:00:00 8,0 2,0 5 3 ESE 10
23.09.2020 20:00:00 8,0 3,0 5 3 ESE 10
23.09.2020 19:00:00 9,0 4,0 8 4 ESE 10
23.09.2020 18:00:00 10,0 5,0 8 4 SE 10
23.09.2020 17:00:00 10,0 5,0 2 1 - 10
23.09.2020 16:00:00 11,0 4,0 5 3 ESE 10
23.09.2020 15:00:00 11,0 5,0 13 7 ESE 10
23.09.2020 14:00:00 11,0 3,0 5 3 - 10
23.09.2020 13:00:00 11,0 4,0 5 3 NNE 10
23.09.2020 12:00:00 10,0 5,0 8 4 N 10
23.09.2020 11:00:00 10,0 6,0 8 4 WNW 10
23.09.2020 10:00:00 9,0 6,0 11 6 WNW 10
23.09.2020 09:00:00 6,0 4,0 9 5 W 10
23.09.2020 08:00:00 5,0 4,0 11 6 W 10
23.09.2020 07:00:00 6,0 4,0 8 4 W 10
23.09.2020 06:00:00 6,0 5,0 11 6 WSW 10
23.09.2020 05:00:00 6,0 5,0 13 7 W 10
23.09.2020 04:00:00 7,0 5,0 11 6 W 10
23.09.2020 03:00:00 7,0 6,0 11 6 W 10
23.09.2020 02:00:00 8,0 6,0 16 9 WNW 3,0
23.09.2020 01:00:00 8,0 7,0 16 9 WNW 10
23.09.2020 00:00:00 8,0 7,0 24 13 NW 10
22.09.2020 23:00:00 8,0 8,0 29 16 NNW 2,7
22.09.2020 22:00:00 9,0 9,0 29 16 NW 6
22.09.2020 21:00:00 11,0 10,0 21 11 WNW 10
22.09.2020 20:00:00 14,0 11,0 29 16 SW 10
22.09.2020 19:00:00 14,0 11,0 24 13 SSW 10
22.09.2020 18:00:00 14,0 11,0 24 13 SSW 10
22.09.2020 17:00:00 14,0 11,0 26 14 SSW 10
22.09.2020 16:00:00 14,0 11,0 22 12 SSW 10
22.09.2020 15:00:00 14,0 11,0 24 13 SSW 10
22.09.2020 14:00:00 13,0 11,0 28 15 SSW 10
22.09.2020 13:00:00 13,0 11,0 18 10 S 10
22.09.2020 12:00:00 12,0 10,0 28 15 S 10
22.09.2020 11:00:00 13,0 10,0 26 14 SSW 10
22.09.2020 10:00:00 13,0 10,0 18 10 SSW 10
22.09.2020 09:00:00 12,0 11,0 18 10 SSW 10
22.09.2020 08:00:00 12,0 11,0 21 11 SW 10
22.09.2020 07:00:00 12,0 11,0 21 11 SW 10
22.09.2020 06:00:00 13,0 11,0 21 11 SSW 10
22.09.2020 05:00:00 13,0 11,0 11 6 SSW 10
22.09.2020 04:00:00 13,0 11,0 15 8 SSW 10
22.09.2020 03:00:00 13,0 11,0 18 10 SSW 10
22.09.2020 02:00:00 13,0 11,0 15 8 SSW 10
22.09.2020 01:00:00 12,0 11,0 13 7 SSW 10
22.09.2020 00:00:00 13,0 11,0 16 9 SSW 10
21.09.2020 23:00:00 12,0 11,0 13 7 SSW 10
21.09.2020 22:00:00 13,0 11,0 11 6 SSW 7
21.09.2020 21:00:00 13,0 10,0 9 5 WSW 10
21.09.2020 20:00:00 13,0 11,0 8 4 SW 10
21.09.2020 19:00:00 12,0 11,0 5 3 SE 10
21.09.2020 18:00:00 13,0 11,0 5 3 ESE 10
21.09.2020 17:00:00 13,0 11,0 8 4 E 10
21.09.2020 16:00:00 14,0 11,0 9 5 NNW 10
21.09.2020 15:00:00 15,0 11,0 5 3 SSW 10
21.09.2020 14:00:00 15,0 10,0 16 9 SW 10
21.09.2020 13:00:00 14,0 11,0 13 7 S 10
21.09.2020 12:00:00 15,0 10,0 15 8 SW 10
21.09.2020 11:00:00 15,0 9,0 15 8 WSW 10
21.09.2020 10:00:00 15,0 8,0 11 6 WSW 10
21.09.2020 09:00:00 12,0 7,0 9 5 SW 10
21.09.2020 08:00:00 12,0 7,0 13 7 SSW 10
21.09.2020 07:00:00 12,0 6,0 15 8 SSW 10
21.09.2020 06:00:00 11,0 8,0 11 6 SSW 10
21.09.2020 05:00:00 10,0 8,0 9 5 SW 10
21.09.2020 04:00:00 11,0 10,0 11 6 SW 10
21.09.2020 03:00:00 11,0 10,0 11 6 SW 10
21.09.2020 02:00:00 11,0 11,0 5 3 - 10
21.09.2020 01:00:00 12,0 11,0 2 1 - 10
21.09.2020 00:00:00 13,0 12,0 11 6 SSW 10
20.09.2020 23:00:00 11,0 10,0 8 4 SSW 10
20.09.2020 22:00:00 10,0 10,0 5 3 SSW 0,5
20.09.2020 21:00:00 10,0 10,0 4 2 - 4,8
20.09.2020 20:00:00 11,0 11,0 13 7 S 0,1
20.09.2020 19:00:00 11,0 11,0 9 5 SSE 0,2
20.09.2020 18:00:00 11,0 11,0 8 4 SE 0,2
20.09.2020 17:00:00 12,0 12,0 9 5 SSE 0,2
20.09.2020 16:00:00 12,0 12,0 15 8 SSE 0,3
20.09.2020 15:00:00 12,0 12,0 11 6 S 0,5
20.09.2020 14:00:00 12,0 12,0 11 6 SSE 0,2
20.09.2020 13:00:00 13,0 13,0 11 6 SE 1,2
20.09.2020 12:00:00 13,0 13,0 2 1 - 10
20.09.2020 11:00:00 - - - - - -
20.09.2020 10:00:00 13,0 12,0 9 5 WNW 0,3
20.09.2020 09:00:00 11,0 11,0 9 5 W 0,3
20.09.2020 08:00:00 10,0 10,0 11 6 NNW 0,1
20.09.2020 07:00:00 8,0 8,0 9 5 NNW 10
20.09.2020 06:00:00 10,0 10,0 4 2 WSW 10
20.09.2020 05:00:00 8,0 8,0 5 3 WSW 0,6
20.09.2020 04:00:00 8,0 7,0 5 3 NW 0,2
20.09.2020 03:00:00 9,0 9,0 2 1 NNW 0,5
20.09.2020 02:00:00 11,0 11,0 9 5 SSW 10
20.09.2020 01:00:00 10,0 10,0 8 4 WNW 8
20.09.2020 00:00:00 10,0 10,0 11 6 W 8
19.09.2020 23:00:00 10,0 10,0 9 5 W 3,2
19.09.2020 22:00:00 11,0 11,0 9 5 W 10
19.09.2020 21:00:00 11,0 10,0 8 4 W 10
19.09.2020 20:00:00 13,0 12,0 5 3 - 10
19.09.2020 19:00:00 13,0 12,0 5 3 S 10
19.09.2020 18:00:00 13,0 12,0 9 5 S 10
19.09.2020 17:00:00 15,0 13,0 11 6 S 10
19.09.2020 16:00:00 14,0 13,0 13 7 S 10
19.09.2020 15:00:00 14,0 13,0 15 8 S 10
19.09.2020 14:00:00 14,0 13,0 15 8 SSE 7
19.09.2020 13:00:00 14,0 13,0 15 8 S 10
19.09.2020 12:00:00 15,0 13,0 13 7 S 10
19.09.2020 11:00:00 14,0 12,0 11 6 S 10
19.09.2020 10:00:00 14,0 12,0 9 5 SSE 10
19.09.2020 09:00:00 13,0 12,0 8 4 S 10
19.09.2020 08:00:00 13,0 12,0 11 6 S 10
19.09.2020 07:00:00 13,0 12,0 5 3 SSE 8
19.09.2020 06:00:00 13,0 12,0 9 5 SE 9
19.09.2020 05:00:00 13,0 12,0 8 4 ESE 10
19.09.2020 04:00:00 13,0 12,0 9 5 E 9
19.09.2020 03:00:00 13,0 12,0 8 4 E 8
19.09.2020 02:00:00 12,0 12,0 5 3 E 5

tt = temperature
td = dewpoint
ff = wind speed
dd = wind direction
vv = visibility

Next stations